createdAt,value
2022-10-13T00:01:21.634Z,101942.00
2022-10-13T00:03:49.564Z,101941.38
2022-10-13T00:06:26.855Z,101946.34
2022-10-13T00:08:56.264Z,101940.34
2022-10-13T00:11:27.898Z,101935.56
2022-10-13T00:13:57.851Z,101936.19
2022-10-13T00:16:26.116Z,101932.44
2022-10-13T00:18:53.957Z,101930.56
2022-10-13T00:21:24.319Z,101937.00
2022-10-13T00:23:56.362Z,101928.72
2022-10-13T00:26:24.538Z,101937.78
2022-10-13T00:28:53.308Z,101936.97
2022-10-13T00:31:27.029Z,101938.38
2022-10-13T00:33:55.919Z,101937.13
2022-10-13T00:36:27.147Z,101943.34
2022-10-13T00:38:55.121Z,101935.84
2022-10-13T00:41:23.576Z,101937.06
2022-10-13T00:43:58.981Z,101939.22
2022-10-13T00:46:33.265Z,101930.94
2022-10-13T00:49:13.572Z,101929.28
2022-10-13T00:51:50.166Z,101939.09
2022-10-13T00:54:25.415Z,101937.06
2022-10-13T00:56:55.387Z,101925.81
2022-10-13T00:59:29.480Z,101941.19
2022-10-13T01:01:59.987Z,101935.59
2022-10-13T01:04:33.475Z,101937.63
2022-10-13T01:07:03.273Z,101934.53
2022-10-13T01:09:42.872Z,101940.72
2022-10-13T01:12:29.138Z,101947.38
2022-10-13T01:15:04.747Z,101953.47
2022-10-13T01:17:45.614Z,101952.66
2022-10-13T01:20:29.244Z,101949.88
2022-10-13T01:23:32.538Z,101959.88
2022-10-13T01:26:16.171Z,101961.56
2022-10-13T01:29:35.997Z,101960.94
2022-10-13T01:32:52.869Z,101950.22
2022-10-13T01:35:38.892Z,101947.94
2022-10-13T01:38:21.273Z,101945.03
2022-10-13T01:41:02.034Z,101951.84
2022-10-13T01:43:43.566Z,101946.94
2022-10-13T01:46:35.218Z,101945.47
2022-10-13T01:49:08.256Z,101943.84
2022-10-13T01:51:37.348Z,101945.31
2022-10-13T01:54:05.251Z,101940.94
2022-10-13T01:56:32.559Z,101937.03
2022-10-13T01:59:05.989Z,101931.66
2022-10-13T02:02:01.840Z,101933.97
2022-10-13T02:04:37.252Z,101928.75
2022-10-13T02:07:24.764Z,101933.31
2022-10-13T02:10:16.207Z,101926.06
2022-10-13T02:12:59.651Z,101926.91
2022-10-13T02:15:35.786Z,101923.97
2022-10-13T02:18:09.096Z,101918.59
2022-10-13T02:20:37.428Z,101920.81
2022-10-13T02:23:12.469Z,101918.69
2022-10-13T02:25:43.519Z,101929.63
2022-10-13T02:28:13.590Z,101932.59
2022-10-13T02:30:46.505Z,101935.75
2022-10-13T02:33:20.415Z,101928.78
2022-10-13T02:35:53.712Z,101928.59
2022-10-13T02:38:33.854Z,101932.41
2022-10-13T02:41:14.202Z,101930.78
2022-10-13T02:43:54.520Z,101926.25
2022-10-13T02:46:33.757Z,101929.50
2022-10-13T02:49:08.556Z,101929.72
2022-10-13T02:51:47.164Z,101925.59
2022-10-13T02:54:30.370Z,101924.38
2022-10-13T02:56:59.336Z,101921.94
2022-10-13T02:59:27.557Z,101922.34
2022-10-13T03:01:55.161Z,101914.91
2022-10-13T03:04:23.905Z,101913.44
2022-10-13T03:06:54.282Z,101906.00
2022-10-13T03:09:22.051Z,101912.44
2022-10-13T03:11:49.611Z,101905.22
2022-10-13T03:14:17.899Z,101898.97
2022-10-13T03:16:45.797Z,101905.44
2022-10-13T03:19:13.740Z,101900.84
2022-10-13T03:21:41.285Z,101899.41
2022-10-13T03:24:09.003Z,101894.25
2022-10-13T03:26:36.498Z,101892.53
2022-10-13T03:29:05.109Z,101890.84
2022-10-13T03:31:33.254Z,101902.59
2022-10-13T03:34:02.660Z,101898.06
2022-10-13T03:36:30.838Z,101898.84
2022-10-13T03:38:58.409Z,101907.13
2022-10-13T03:41:26.364Z,101901.09
2022-10-13T03:43:54.769Z,101899.84
2022-10-13T03:46:25.163Z,101899.41
2022-10-13T03:48:52.720Z,101906.81
2022-10-13T03:51:23.119Z,101899.44
2022-10-13T03:53:53.395Z,101905.84
2022-10-13T03:56:26.981Z,101908.28
2022-10-13T03:59:01.328Z,101902.28
2022-10-13T04:01:31.018Z,101902.50
2022-10-13T04:04:04.621Z,101894.84
2022-10-13T04:06:32.765Z,101900.91
2022-10-13T04:09:02.907Z,101895.13
2022-10-13T04:11:30.991Z,101899.25
2022-10-13T04:13:59.772Z,101901.28
2022-10-13T04:16:33.268Z,101894.84
2022-10-13T04:19:05.873Z,101898.75
2022-10-13T04:21:36.279Z,101895.25
2022-10-13T04:24:05.151Z,101897.25
2022-10-13T04:26:36.182Z,101901.28
2022-10-13T04:29:12.789Z,101906.00
2022-10-13T04:31:44.131Z,101902.69
2022-10-13T04:34:12.991Z,101898.34
2022-10-13T04:36:40.551Z,101907.16
2022-10-13T04:39:09.963Z,101907.81
2022-10-13T04:41:38.056Z,101911.22
2022-10-13T04:44:05.742Z,101916.78
2022-10-13T04:46:33.899Z,101919.66
2022-10-13T04:49:02.305Z,101926.91
2022-10-13T04:51:32.721Z,101923.38
2022-10-13T04:54:03.651Z,101929.16
2022-10-13T04:56:31.184Z,101925.56
2022-10-13T04:59:06.203Z,101934.72
2022-10-13T05:01:34.948Z,101940.25
2022-10-13T05:04:03.897Z,101948.13
2022-10-13T05:07:16.346Z,101931.97
2022-10-13T05:09:43.457Z,101941.25
2022-10-13T05:12:16.639Z,101930.56
2022-10-13T05:14:56.944Z,101934.03
2022-10-13T05:17:25.581Z,101940.28
2022-10-13T05:19:53.065Z,101928.53
2022-10-13T05:22:20.914Z,101935.19
2022-10-13T05:24:50.128Z,101927.63
2022-10-13T05:27:19.767Z,101921.19
2022-10-13T05:29:47.343Z,101913.88
2022-10-13T05:32:18.334Z,101911.31
2022-10-13T05:34:51.357Z,101914.69
2022-10-13T05:37:23.457Z,101909.28
2022-10-13T05:39:51.736Z,101905.41
2022-10-13T05:42:19.357Z,101914.34
2022-10-13T05:44:47.469Z,101906.00
2022-10-13T05:47:15.227Z,101910.44
2022-10-13T05:49:42.711Z,101903.44
2022-10-13T05:52:17.890Z,101900.09
2022-10-13T05:54:59.107Z,101897.75
2022-10-13T05:57:45.862Z,101895.38
2022-10-13T06:00:19.754Z,101888.53
2022-10-13T06:03:08.002Z,101883.53
2022-10-13T06:05:38.531Z,101892.38
2022-10-13T06:08:07.376Z,101883.22
2022-10-13T06:10:37.717Z,101884.56
2022-10-13T06:13:09.872Z,101887.53
2022-10-13T06:15:37.506Z,101886.88
2022-10-13T06:18:09.885Z,101898.00
2022-10-13T06:20:45.426Z,101905.69
2022-10-13T06:23:19.012Z,101904.53
2022-10-13T06:25:52.739Z,101907.94
2022-10-13T06:28:35.153Z,101907.16
2022-10-13T06:31:07.019Z,101911.72
2022-10-13T06:33:39.336Z,101912.09
2022-10-13T06:36:08.305Z,101914.47
2022-10-13T06:38:36.597Z,101925.06
2022-10-13T06:41:10.337Z,101913.41
2022-10-13T06:43:44.296Z,101922.34
2022-10-13T06:46:32.310Z,101922.59
2022-10-13T06:49:04.144Z,101919.13
2022-10-13T06:51:44.610Z,101922.06
2022-10-13T06:54:22.152Z,101922.88
2022-10-13T06:56:50.692Z,101932.75
2022-10-13T06:59:29.298Z,101920.31
2022-10-13T07:01:56.830Z,101933.56
2022-10-13T07:04:27.487Z,101928.81
2022-10-13T07:07:05.904Z,101933.00
2022-10-13T07:09:37.115Z,101930.34
2022-10-13T07:12:07.782Z,101931.16
2022-10-13T07:14:36.505Z,101931.00
2022-10-13T07:17:10.423Z,101938.53
2022-10-13T07:20:06.545Z,101946.41
2022-10-13T07:22:50.090Z,101945.00
2022-10-13T07:25:32.195Z,101944.84
2022-10-13T07:28:26.882Z,101954.19
2022-10-13T07:31:02.763Z,101957.53
2022-10-13T07:33:34.086Z,101957.13
2022-10-13T07:36:02.709Z,101957.38
2022-10-13T07:38:32.113Z,101954.97
2022-10-13T07:41:05.268Z,101963.44
2022-10-13T07:43:33.638Z,101955.56
2022-10-13T07:46:08.348Z,101964.47
2022-10-13T07:48:37.319Z,101961.84
2022-10-13T07:51:13.163Z,101964.56
2022-10-13T07:53:43.209Z,101962.19
2022-10-13T07:56:15.150Z,101962.63
2022-10-13T07:58:46.095Z,101965.56
2022-10-13T08:01:15.896Z,101960.66
2022-10-13T08:03:48.878Z,101965.66
2022-10-13T08:06:25.270Z,101967.31
2022-10-13T08:08:55.288Z,101973.78
2022-10-13T08:11:23.663Z,101978.59
2022-10-13T08:13:53.955Z,101973.19
2022-10-13T08:16:22.936Z,101968.63
2022-10-13T08:18:51.282Z,101966.13
2022-10-13T08:24:15.665Z,101969.34
2022-10-13T08:26:45.135Z,101962.69
2022-10-13T08:29:21.821Z,101957.38
2022-10-13T08:31:52.186Z,101949.22
2022-10-13T08:34:21.570Z,101950.75
2022-10-13T08:36:53.784Z,101941.34
2022-10-13T08:39:24.783Z,101940.00
2022-10-13T08:41:54.777Z,101936.09
2022-10-13T08:47:32.890Z,101944.13
2022-10-13T08:50:03.563Z,101940.03
2022-10-13T08:53:03.381Z,101936.16
2022-10-13T08:55:36.707Z,101930.94
2022-10-13T08:58:14.140Z,101934.56
2022-10-13T09:00:43.785Z,101928.34
2022-10-13T09:03:21.508Z,101938.25
2022-10-13T09:06:15.743Z,101941.53
2022-10-13T09:08:56.286Z,101933.91
2022-10-13T09:11:28.701Z,101936.91
2022-10-13T09:14:00.518Z,101935.59
2022-10-13T09:16:38.322Z,101932.53
2022-10-13T09:19:25.620Z,101929.03
2022-10-13T09:22:39.941Z,101926.59
2022-10-13T09:25:07.549Z,101926.50
2022-10-13T09:27:55.253Z,101925.22
2022-10-13T09:30:47.593Z,101918.59
2022-10-13T09:33:21.398Z,101920.84
2022-10-13T09:35:56.676Z,101915.41
2022-10-13T09:38:26.310Z,101909.88
2022-10-13T09:41:00.961Z,101907.50
2022-10-13T09:43:48.918Z,101906.53
2022-10-13T09:46:50.466Z,101910.72
2022-10-13T09:49:27.919Z,101913.28
2022-10-13T09:52:12.405Z,101913.75
2022-10-13T09:54:57.441Z,101913.38
2022-10-13T09:57:25.157Z,101916.09
2022-10-13T10:00:17.995Z,101912.09
2022-10-13T10:03:29.501Z,101903.63
2022-10-13T10:09:03.836Z,101901.66
2022-10-13T10:11:42.939Z,101906.50
2022-10-13T10:14:34.766Z,101911.97
2022-10-13T10:17:22.258Z,101906.72
2022-10-13T10:20:33.773Z,101909.78
2022-10-13T10:23:19.357Z,101894.31
2022-10-13T10:26:02.209Z,101891.94
2022-10-13T10:28:38.368Z,101892.72
2022-10-13T10:31:34.906Z,101889.66
2022-10-13T10:34:26.455Z,101894.72
2022-10-13T10:37:15.556Z,101890.31
2022-10-13T10:39:51.920Z,101870.19
2022-10-13T10:42:40.847Z,101878.66
2022-10-13T10:45:21.929Z,101879.00
2022-10-13T10:48:00.261Z,101880.16
2022-10-13T10:50:30.660Z,101879.91
2022-10-13T10:53:03.827Z,101884.88
2022-10-13T10:55:40.887Z,101883.56
2022-10-13T10:58:19.007Z,101877.84
2022-10-13T11:00:57.864Z,101872.72
2022-10-13T11:03:51.395Z,101864.41
2022-10-13T11:06:38.299Z,101878.66
2022-10-13T11:09:08.414Z,101862.53
2022-10-13T11:11:44.998Z,101862.63
2022-10-13T11:14:31.228Z,101864.84
2022-10-13T11:17:00.528Z,101860.22
2022-10-13T11:19:46.092Z,101857.75
2022-10-13T11:22:24.434Z,101865.66
2022-10-13T11:25:29.443Z,101864.75
2022-10-13T11:28:23.285Z,101865.50
2022-10-13T11:31:00.381Z,101854.44
2022-10-13T11:33:41.226Z,101850.13
2022-10-13T11:37:13.194Z,101848.81
2022-10-13T11:40:19.795Z,101842.28
2022-10-13T11:43:43.833Z,101834.19
2022-10-13T11:46:28.700Z,101832.56
2022-10-13T11:49:36.661Z,101818.38
2022-10-13T11:53:09.281Z,101810.34
2022-10-13T11:58:50.533Z,101789.28
2022-10-13T12:01:22.776Z,101773.47
2022-10-13T12:03:54.291Z,101776.50
2022-10-13T12:06:35.875Z,101767.00
2022-10-13T12:09:39.728Z,101755.88
2022-10-13T12:12:19.308Z,101754.13
2022-10-13T12:14:59.983Z,101757.88
2022-10-13T12:18:41.782Z,101748.88
2022-10-13T12:25:07.601Z,101734.88
2022-10-13T12:27:55.135Z,101728.31
2022-10-13T12:30:39.579Z,101723.00
2022-10-13T12:33:24.293Z,101726.06
2022-10-13T12:35:57.315Z,101719.09
2022-10-13T12:38:25.075Z,101717.78
2022-10-13T12:40:53.763Z,101702.03
2022-10-13T12:43:27.903Z,101702.84
2022-10-13T12:45:55.661Z,101695.78
2022-10-13T12:52:26.124Z,101687.09
2022-10-13T12:54:59.489Z,101692.19
2022-10-13T12:57:38.457Z,101682.88
2022-10-13T13:00:22.504Z,101677.31
2022-10-13T13:03:11.286Z,101669.13
2022-10-13T13:05:53.530Z,101664.22
2022-10-13T13:08:55.175Z,101669.13
2022-10-13T13:11:36.955Z,101669.94
2022-10-13T13:14:47.318Z,101669.66
2022-10-13T13:17:38.835Z,101663.41
2022-10-13T13:20:32.100Z,101669.41
2022-10-13T13:23:00.448Z,101662.88
2022-10-13T13:25:31.590Z,101662.09
2022-10-13T13:27:59.737Z,101667.66
2022-10-13T13:30:29.107Z,101671.78
2022-10-13T13:32:59.441Z,101668.47
2022-10-13T13:35:26.908Z,101671.88
2022-10-13T13:37:54.155Z,101657.78
2022-10-13T13:40:23.935Z,101666.44
2022-10-13T13:42:51.891Z,101651.19
2022-10-13T13:45:27.678Z,101650.94
2022-10-13T13:48:00.678Z,101661.28
2022-10-13T13:50:34.478Z,101657.44
2022-10-13T13:53:02.098Z,101655.25
2022-10-13T13:55:37.675Z,101654.13
2022-10-13T13:58:10.802Z,101654.38
2022-10-13T14:00:39.112Z,101644.00
2022-10-13T14:03:06.682Z,101644.00
2022-10-13T14:05:34.234Z,101648.66
2022-10-13T14:08:02.577Z,101650.81
2022-10-13T14:10:30.539Z,101641.56
2022-10-13T14:12:58.464Z,101632.84
2022-10-13T14:15:29.647Z,101630.94
2022-10-13T14:17:58.645Z,101630.41
2022-10-13T14:20:26.553Z,101636.38
2022-10-13T14:22:54.146Z,101629.81
2022-10-13T14:25:22.741Z,101640.97
2022-10-13T14:27:51.633Z,101629.81
2022-10-13T14:30:19.280Z,101633.91
2022-10-13T14:32:52.825Z,101628.13
2022-10-13T14:35:20.525Z,101628.06
2022-10-13T14:37:53.106Z,101632.38
2022-10-13T14:40:22.550Z,101640.75
2022-10-13T14:42:57.010Z,101633.06
2022-10-13T14:45:28.856Z,101635.47
2022-10-13T14:47:55.958Z,101628.94
2022-10-13T14:50:29.816Z,101635.97
2022-10-13T14:52:57.606Z,101632.69
2022-10-13T14:55:26.229Z,101631.50
2022-10-13T14:57:53.439Z,101635.88
2022-10-13T15:00:22.947Z,101636.94
2022-10-13T15:02:50.204Z,101641.31
2022-10-13T15:05:19.232Z,101640.19
2022-10-13T15:07:47.929Z,101631.09
2022-10-13T15:10:17.986Z,101630.03
2022-10-13T15:12:45.118Z,101634.09
2022-10-13T15:15:12.662Z,101636.00
2022-10-13T15:17:40.768Z,101633.53
2022-10-13T15:20:09.111Z,101631.63
2022-10-13T15:22:36.974Z,101634.47
2022-10-13T15:25:10.253Z,101629.91
2022-10-13T15:27:42.136Z,101628.84
2022-10-13T15:30:15.115Z,101642.75
2022-10-13T15:32:42.477Z,101633.81
2022-10-13T15:35:19.307Z,101629.75
2022-10-13T15:37:46.676Z,101619.44
2022-10-13T15:40:14.156Z,101621.34
2022-10-13T15:42:41.722Z,101620.78
2022-10-13T15:45:11.356Z,101612.88
2022-10-13T15:47:40.461Z,101621.84
2022-10-13T15:50:13.304Z,101624.03
2022-10-13T15:52:42.032Z,101622.91
2022-10-13T15:55:12.137Z,101636.53
2022-10-13T15:57:41.995Z,101633.25
2022-10-13T16:00:11.590Z,101637.06
2022-10-13T16:02:44.250Z,101646.28
2022-10-13T16:05:14.323Z,101640.63
2022-10-13T16:07:44.045Z,101645.78
2022-10-13T16:10:15.453Z,101649.84
2022-10-13T16:12:49.382Z,101642.50
2022-10-13T16:15:18.253Z,101648.44
2022-10-13T16:17:49.744Z,101655.22
2022-10-13T16:20:17.442Z,101647.56
2022-10-13T16:22:47.599Z,101653.81
2022-10-13T16:25:20.397Z,101656.50
2022-10-13T16:27:47.758Z,101668.41
2022-10-13T16:30:15.106Z,101677.19
2022-10-13T16:32:42.724Z,101673.38
2022-10-13T16:35:10.204Z,101685.84
2022-10-13T16:37:41.544Z,101687.13
2022-10-13T16:40:09.493Z,101680.47
2022-10-13T16:42:37.676Z,101694.78
2022-10-13T16:45:05.548Z,101692.78
2022-10-13T16:47:34.431Z,101704.94
2022-10-13T16:50:01.963Z,101703.69
2022-10-13T16:52:29.995Z,101715.06
2022-10-13T16:54:57.460Z,101712.50
2022-10-13T16:57:56.450Z,101706.41
2022-10-13T17:00:40.021Z,101715.78
2022-10-13T17:03:07.477Z,101725.50
2022-10-13T17:05:34.873Z,101733.00
2022-10-13T17:08:05.202Z,101736.22
2022-10-13T17:10:34.701Z,101740.69
2022-10-13T17:13:02.727Z,101736.13
2022-10-13T17:15:32.433Z,101738.03
2022-10-13T17:17:59.717Z,101745.00
2022-10-13T17:20:27.359Z,101741.47
2022-10-13T17:22:55.058Z,101745.75
2022-10-13T17:25:22.356Z,101748.91
2022-10-13T17:27:49.759Z,101752.38
2022-10-13T17:30:17.232Z,101749.09
2022-10-13T17:32:45.364Z,101745.91
2022-10-13T17:35:19.074Z,101744.50
2022-10-13T17:37:49.926Z,101747.59
2022-10-13T17:40:18.512Z,101753.25
2022-10-13T17:42:45.738Z,101752.44
2022-10-13T17:45:12.992Z,101761.53
2022-10-13T17:47:43.985Z,101768.88
2022-10-13T17:50:11.743Z,101772.31
2022-10-13T17:52:38.990Z,101774.66
2022-10-13T17:55:06.658Z,101773.84
2022-10-13T17:57:34.016Z,101777.00
2022-10-13T18:00:04.779Z,101785.03
2022-10-13T18:02:39.793Z,101788.00
2022-10-13T18:05:08.234Z,101783.97
2022-10-13T18:07:47.592Z,101777.25
2022-10-13T18:10:22.668Z,101776.91
2022-10-13T18:12:57.762Z,101776.06
2022-10-13T18:15:25.184Z,101774.66
2022-10-13T18:17:52.720Z,101775.94
2022-10-13T18:20:22.686Z,101781.63
2022-10-13T18:22:54.886Z,101785.63
2022-10-13T18:25:25.396Z,101781.25
2022-10-13T18:27:53.571Z,101790.47
2022-10-13T18:30:22.493Z,101794.97
2022-10-13T18:32:51.297Z,101801.44
2022-10-13T18:35:18.634Z,101804.41
2022-10-13T18:37:52.738Z,101799.19
2022-10-13T18:40:20.905Z,101804.75
2022-10-13T18:42:54.586Z,101799.88
2022-10-13T18:45:23.273Z,101811.44
2022-10-13T18:47:52.544Z,101817.94
2022-10-13T18:50:37.291Z,101822.88
2022-10-13T18:53:04.910Z,101814.97
2022-10-13T18:55:32.988Z,101822.16
2022-10-13T18:58:00.597Z,101824.19
2022-10-13T19:00:28.155Z,101828.53
2022-10-13T19:02:56.511Z,101820.63
2022-10-13T19:05:25.490Z,101818.97
2022-10-13T19:07:58.320Z,101820.88
2022-10-13T19:10:25.733Z,101819.44
2022-10-13T19:12:53.265Z,101819.22
2022-10-13T19:15:23.253Z,101823.00
2022-10-13T19:17:51.233Z,101817.78
2022-10-13T19:20:18.522Z,101824.31
2022-10-13T19:22:48.338Z,101821.34
2022-10-13T19:25:19.247Z,101821.34
2022-10-13T19:27:57.694Z,101817.44
2022-10-13T19:30:30.688Z,101822.50
2022-10-13T19:33:07.431Z,101824.41
2022-10-13T19:36:03.677Z,101819.22
2022-10-13T19:38:31.302Z,101817.56
2022-10-13T19:41:03.879Z,101819.22
2022-10-13T19:43:31.672Z,101826.25
2022-10-13T19:45:59.984Z,101823.22
2022-10-13T19:48:28.074Z,101825.06
2022-10-13T19:50:55.538Z,101826.09
2022-10-13T19:53:23.010Z,101826.94
2022-10-13T19:55:50.894Z,101827.53
2022-10-13T19:58:20.176Z,101821.28
2022-10-13T20:00:47.706Z,101822.94
2022-10-13T20:03:16.964Z,101814.19
2022-10-13T20:05:50.575Z,101813.81
2022-10-13T20:08:18.865Z,101814.91
2022-10-13T20:10:51.193Z,101820.75
2022-10-13T20:13:18.391Z,101828.06
2022-10-13T20:15:48.369Z,101825.59
2022-10-13T20:18:17.268Z,101835.38
2022-10-13T20:20:47.679Z,101830.16
2022-10-13T20:23:14.941Z,101827.47
2022-10-13T20:25:44.017Z,101837.50
2022-10-13T20:28:11.251Z,101836.28
2022-10-13T20:30:40.587Z,101839.25
2022-10-13T20:33:10.941Z,101837.34
2022-10-13T20:35:39.127Z,101837.00
2022-10-13T20:38:06.433Z,101838.28
2022-10-13T20:40:34.695Z,101838.50
2022-10-13T20:43:05.034Z,101835.41
2022-10-13T20:45:32.254Z,101840.56
2022-10-13T20:47:59.527Z,101836.22
2022-10-13T20:50:26.980Z,101838.75
2022-10-13T20:52:54.307Z,101842.31
2022-10-13T20:55:21.878Z,101836.91
2022-10-13T20:57:55.166Z,101838.41
2022-10-13T21:00:22.358Z,101829.31
2022-10-13T21:02:51.153Z,101825.53
2022-10-13T21:05:21.174Z,101825.84
2022-10-13T21:07:48.378Z,101825.84
2022-10-13T21:10:15.658Z,101823.13
2022-10-13T21:12:42.841Z,101828.78
2022-10-13T21:15:18.373Z,101841.81
2022-10-13T21:17:46.207Z,101841.84
2022-10-13T21:20:13.967Z,101843.19
2022-10-13T21:22:41.245Z,101843.66
2022-10-13T21:25:10.564Z,101840.34
2022-10-13T21:27:40.791Z,101834.25
2022-10-13T21:30:09.325Z,101838.31
2022-10-13T21:32:37.916Z,101837.94
2022-10-13T21:35:05.737Z,101841.59
2022-10-13T21:37:39.294Z,101834.56
2022-10-13T21:40:10.371Z,101839.56
2022-10-13T21:42:49.343Z,101833.13
2022-10-13T21:45:16.703Z,101846.88
2022-10-13T21:47:45.718Z,101849.41
2022-10-13T21:50:13.169Z,101840.84
2022-10-13T21:52:40.467Z,101837.91
2022-10-13T21:55:08.584Z,101836.47
2022-10-13T21:57:35.892Z,101833.56
2022-10-13T22:00:04.373Z,101836.91
2022-10-13T22:02:40.370Z,101850.44
2022-10-13T22:05:13.731Z,101840.84
2022-10-13T22:07:41.998Z,101841.06
2022-10-13T22:10:10.925Z,101841.56
2022-10-13T22:12:38.273Z,101843.88
2022-10-13T22:15:06.989Z,101838.34
2022-10-13T22:17:37.932Z,101836.03
2022-10-13T22:20:06.785Z,101840.06
2022-10-13T22:22:34.095Z,101838.00
2022-10-13T22:25:01.274Z,101836.41
2022-10-13T22:27:32.492Z,101836.75
2022-10-13T22:30:00.246Z,101834.69
2022-10-13T22:32:27.291Z,101834.03
2022-10-13T22:34:57.682Z,101826.94
2022-10-13T22:37:27.238Z,101834.31
2022-10-13T22:40:17.818Z,101830.38
2022-10-13T22:42:56.241Z,101820.44
2022-10-13T22:45:25.544Z,101821.75
2022-10-13T22:47:52.715Z,101816.94
2022-10-13T22:50:20.461Z,101822.34
2022-10-13T22:52:47.566Z,101814.25
2022-10-13T22:55:14.847Z,101817.16
2022-10-13T22:57:41.959Z,101817.16
2022-10-13T23:00:11.237Z,101821.28
2022-10-13T23:02:41.563Z,101831.47
2022-10-13T23:05:09.158Z,101828.97
2022-10-13T23:07:37.578Z,101830.63
2022-10-13T23:10:05.534Z,101826.09
2022-10-13T23:12:37.279Z,101831.97
2022-10-13T23:15:07.468Z,101826.19
2022-10-13T23:17:35.758Z,101826.63
2022-10-13T23:20:19.127Z,101819.22
2022-10-13T23:22:54.361Z,101822.97
2022-10-13T23:25:41.003Z,101825.72
2022-10-13T23:28:24.321Z,101830.19
2022-10-13T23:30:55.442Z,101812.34
2022-10-13T23:33:32.117Z,101813.97
2022-10-13T23:36:13.910Z,101810.22
2022-10-13T23:38:54.971Z,101817.09
2022-10-13T23:41:24.635Z,101805.50
2022-10-13T23:43:52.156Z,101804.38
2022-10-13T23:46:19.533Z,101803.31
2022-10-13T23:48:47.167Z,101803.13
2022-10-13T23:51:18.083Z,101798.50
2022-10-13T23:53:46.614Z,101802.06
2022-10-13T23:56:16.915Z,101807.25
2022-10-13T23:58:45.512Z,101811.97
